Time;durP1;ratioP1;P1;durP2;ratioP2;P2;SDS_P1;SDS_P2;PMS_P1;PMS_P2;Temp;Humidity;BMP_temperature;BMP_pressure;BME280_temperature;BME280_humidity;BME280_pressure;Samples;Min_cycle;Max_cycle;Signal;HPM_P1;HPM_P2
2024/04/22 02:55:29;;;;;;;3.80;3.30;;;;;;;;;;5170310;27;20513;-88
2024/04/22 07:59:49;;;;;;;5.30;4.80;;;;;;;;;;5267357;27;20511;-89
2024/04/22 08:06:05;;;;;;;5.33;4.83;;;;;;;;;;5104965;27;20511;-86
2024/04/22 08:38:03;;;;;;;4.70;4.40;;;;;;;;;;4972129;28;20547;-88
2024/04/22 09:07:11;;;;;;;;;;;;;;;;;;;;;
2024/04/22 11:29:26;;;;;;;3.93;3.33;;;;;;;;;;5233206;27;20683;-87
2024/04/22 11:32:57;;;;;;;;;;;;;;;;;;;;;
2024/04/22 11:35:54;;;;;;;3.97;2.77;;;;;;;;;;5198898;27;20468;-88
2024/04/22 11:42:58;;;;;;;;;;;;;;;;;;;;;
2024/04/22 12:46:16;;;;;;;;;;;;;;;;;;;;;
2024/04/22 12:53:06;;;;;;;3.70;3.10;;;;;;;;;;5121661;28;21152;-86
2024/04/22 12:56:11;;;;;;;3.23;3.03;;;;;;;;;;5037484;28;20612;-88
2024/04/22 12:59:41;;;;;;;2.87;2.20;;;;;;;;;;5052069;28;20614;-88
2024/04/22 13:11:27;;;;;;;4.00;3.70;;;;;;;;;;5350508;22;21339;-88
2024/04/22 13:14:56;;;;;;;4.90;4.30;;;;;;;;;;5216901;27;20530;-87
2024/04/22 13:32:06;;;;;;;4.30;3.90;;;;;;;;;;5062779;28;20496;-89
2024/04/22 13:42:49;;;;;;;;;;;;;;;;;;;;;
2024/04/22 13:48:48;;;;;;;;;;;;;;;;;;;;;
2024/04/22 13:51:38;;;;;;;3.50;3.17;;;;;;;;;;5246469;27;20503;-84
2024/04/22 13:54:31;;;;;;;3.37;2.93;;;;;;;;;;5213263;27;20580;-84
2024/04/22 14:00:31;;;;;;;3.10;2.90;;;;;;;;;;5234781;27;20513;-85
2024/04/22 14:03:05;;;;;;;3.10;2.90;;;;;;;;;;5227872;27;20553;-82
2024/04/22 14:05:38;;;;;;;3.20;3.00;;;;;;;;;;5231786;27;20542;-82
2024/04/22 14:08:18;;;;;;;3.77;3.47;;;;;;;;;;5216594;27;20524;-83
2024/04/22 14:11:00;;;;;;;3.20;2.90;;;;;;;;;;5222954;27;20525;-81
2024/04/22 14:13:46;;;;;;;3.47;3.17;;;;;;;;;;5196525;27;20465;-86
2024/04/22 14:17:03;;;;;;;3.00;2.80;;;;;;;;;;5205388;27;20472;-82
2024/04/22 14:19:57;;;;;;;3.57;3.27;;;;;;;;;;5212383;27;20590;-82
2024/04/22 14:22:51;;;;;;;2.90;2.70;;;;;;;;;;5235197;27;20481;-83
2024/04/22 14:25:45;;;;;;;3.07;2.87;;;;;;;;;;5196306;27;21065;-87
2024/04/22 14:28:19;;;;;;;3.00;2.80;;;;;;;;;;5209788;27;20528;-84
2024/04/22 14:30:56;;;;;;;3.60;2.50;;;;;;;;;;5212605;27;20579;-84
2024/04/22 14:33:23;;;;;;;2.70;2.50;;;;;;;;;;5212383;27;20470;-86
2024/04/22 14:35:57;;;;;;;2.70;2.50;;;;;;;;;;5239706;27;20462;-88
2024/04/22 14:38:52;;;;;;;3.03;2.37;;;;;;;;;;5221078;27;20529;-84
2024/04/22 14:41:33;;;;;;;3.60;3.30;;;;;;;;;;5203572;27;20473;-86
2024/04/22 14:44:10;;;;;;;3.50;3.17;;;;;;;;;;5220533;27;20557;-82
2024/04/22 14:46:48;;;;;;;5.60;3.50;;;;;;;;;;5215267;27;20520;-85
2024/04/22 14:49:20;;;;;;;4.10;3.70;;;;;;;;;;5233703;27;20526;-83
2024/04/22 14:51:56;;;;;;;3.47;3.17;;;;;;;;;;5202468;27;20688;-85
2024/04/22 14:54:34;;;;;;;6.90;3.40;;;;;;;;;;5258117;27;20499;-83
2024/04/22 14:57:24;;;;;;;2.83;2.63;;;;;;;;;;5243280;27;20460;-84
2024/04/22 15:00:04;;;;;;;3.40;3.20;;;;;;;;;;5222156;27;20458;-83
2024/04/22 15:06:46;;;;;;;;;;;;;;;;;;;;;
2024/04/22 15:14:32;;;;;;;3.60;3.30;;;;;;;;;;5249321;27;20883;-86
2024/04/22 15:16:52;;;;;;;3.90;3.70;;;;;;;;;;5177017;27;20649;-87
2024/04/22 15:29:02;;;;;;;4.63;4.23;;;;;;;;;;5292352;27;20459;-88
2024/04/22 15:32:29;;;;;;;5.33;4.00;;;;;;;;;;5144263;27;21096;-88
2024/04/22 15:38:50;;;;;;;;;;;;;;;;;;;;;
2024/04/22 15:45:29;;;;;;;5.00;4.50;;;;;;;;;;5083695;28;20486;-89
2024/04/22 15:55:34;;;;;;;6.10;4.47;;;;;;;;;;5034346;28;20553;-89
2024/04/22 15:58:43;;;;;;;4.23;3.93;;;;;;;;;;4928799;28;20589;-88
2024/04/22 16:02:11;;;;;;;4.60;4.20;;;;;;;;;;4984573;28;20570;-88
2024/04/22 16:05:16;;;;;;;5.00;4.50;;;;;;;;;;5038057;28;20488;-87
2024/04/22 16:11:38;;;;;;;4.33;4.03;;;;;;;;;;5064883;28;20930;-88
2024/04/22 16:14:54;;;;;;;4.60;4.10;;;;;;;;;;5092963;28;20533;-88
2024/04/22 16:17:35;;;;;;;5.60;4.23;;;;;;;;;;5097366;28;20523;-88
2024/04/22 16:20:24;;;;;;;4.53;3.80;;;;;;;;;;5110566;27;20473;-89
2024/04/22 16:27:04;;;;;;;5.03;4.63;;;;;;;;;;5065756;28;20493;-88
2024/04/22 16:30:20;;;;;;;4.30;4.00;;;;;;;;;;5241374;27;20846;-86
2024/04/22 16:33:07;;;;;;;;;;;;;;;;;;;;;
2024/04/22 16:35:52;;;;;;;4.70;4.30;;;;;;;;;;5256263;27;20488;-89
2024/04/22 16:38:29;;;;;;;4.60;4.20;;;;;;;;;;5257544;27;20527;-89
2024/04/22 16:41:00;;;;;;;4.47;4.17;;;;;;;;;;5220655;27;20475;-88
2024/04/22 16:43:41;;;;;;;4.10;3.80;;;;;;;;;;5234704;27;21025;-89
2024/04/22 16:46:20;;;;;;;3.50;3.27;;;;;;;;;;5228802;27;20539;-88
2024/04/22 16:48:53;;;;;;;4.20;3.90;;;;;;;;;;5208976;27;20484;-87
2024/04/22 16:51:21;;;;;;;3.97;3.57;;;;;;;;;;5259208;27;20488;-88
2024/04/22 16:53:49;;;;;;;4.10;3.80;;;;;;;;;;5226032;27;20499;-86
2024/04/22 16:56:17;;;;;;;4.10;3.70;;;;;;;;;;5234930;27;20530;-86
2024/04/22 16:58:56;;;;;;;4.20;3.90;;;;;;;;;;5219392;27;20458;-87
2024/04/22 17:01:33;;;;;;;4.83;3.97;;;;;;;;;;5243209;27;20553;-88
2024/04/22 17:04:10;;;;;;;3.27;3.03;;;;;;;;;;5228542;27;20503;-89
2024/04/22 17:06:50;;;;;;;3.60;3.30;;;;;;;;;;5211095;27;20470;-89
2024/04/22 17:09:41;;;;;;;4.03;3.63;;;;;;;;;;5223259;27;20484;-86
2024/04/22 17:12:25;;;;;;;3.87;3.57;;;;;;;;;;5151933;27;20503;-89
2024/04/22 17:15:45;;;;;;;4.33;3.93;;;;;;;;;;5115640;27;20556;-87
2024/04/22 17:18:15;;;;;;;4.83;4.17;;;;;;;;;;5121489;27;20559;-89
2024/04/22 17:21:02;;;;;;;4.77;4.37;;;;;;;;;;5142792;27;20528;-89
2024/04/22 17:23:52;;;;;;;;;;;;;;;;;;;;;
2024/04/22 17:26:39;;;;;;;4.93;4.53;;;;;;;;;;5150094;27;20484;-87
2024/04/22 17:29:27;;;;;;;;;;;;;;;;;;;;;
2024/04/22 17:35:23;;;;;;;4.43;4.03;;;;;;;;;;5455462;21;20690;-88
2024/04/22 17:38:12;;;;;;;3.93;3.53;;;;;;;;;;5249490;27;20479;-86
2024/04/22 17:41:27;;;;;;;4.33;3.93;;;;;;;;;;5263242;27;20563;-88
2024/04/22 17:44:53;;;;;;;5.00;3.57;;;;;;;;;;5248677;27;20528;-88
2024/04/22 17:47:42;;;;;;;3.60;3.30;;;;;;;;;;5161924;27;20503;-87
2024/04/22 17:50:25;;;;;;;7.30;3.83;;;;;;;;;;5241706;27;20479;-88
2024/04/22 17:53:17;;;;;;;4.43;4.00;;;;;;;;;;5210401;27;20487;-89
2024/04/22 17:55:59;;;;;;;3.30;3.10;;;;;;;;;;5209819;27;20517;-87
2024/04/22 17:58:43;;;;;;;3.30;3.10;;;;;;;;;;5255994;27;20536;-88
2024/04/22 18:01:21;;;;;;;3.93;3.53;;;;;;;;;;5225697;27;20477;-90
2024/04/22 18:06:59;;;;;;;3.67;3.30;;;;;;;;;;5250103;27;20527;-86
2024/04/22 18:09:39;;;;;;;6.30;4.63;;;;;;;;;;5226459;27;20511;-88
2024/04/22 18:12:40;;;;;;;;;;;;;;;;;;;;;
2024/04/22 18:15:42;;;;;;;3.50;3.20;;;;;;;;;;5235350;27;20535;-88
2024/04/22 18:18:23;;;;;;;3.77;3.37;;;;;;;;;;5256076;27;20472;-88
2024/04/22 18:21:20;;;;;;;4.47;3.70;;;;;;;;;;5215662;27;20815;-87
2024/04/22 18:23:55;;;;;;;4.70;4.30;;;;;;;;;;5254475;27;20484;-87
2024/04/22 18:26:39;;;;;;;4.47;4.07;;;;;;;;;;5215132;27;20488;-89
2024/04/22 18:30:01;;;;;;;3.63;3.33;;;;;;;;;;5214797;27;20472;-88
2024/04/22 18:57:08;;;;;;;5.10;3.83;;;;;;;;;;6630976;20;3032614;-86
2024/04/22 19:00:00;;;;;;;;;;;;;;;;;;;;;
2024/04/22 19:06:03;;;;;;;4.83;3.83;;;;;;;;;;6593587;21;20885;-88
2024/04/22 19:09:19;;;;;;;4.30;3.90;;;;;;;;;;6538721;21;20531;-89
2024/04/22 19:12:20;;;;;;;3.40;2.80;;;;;;;;;;6531184;21;20513;-88
2024/04/22 19:15:37;;;;;;;3.80;3.40;;;;;;;;;;6552477;21;20463;-89
2024/04/22 19:18:56;;;;;;;4.43;3.53;;;;;;;;;;6386531;22;20476;-88
2024/04/22 19:21:27;;;;;;;3.03;2.83;;;;;;;;;;6441830;22;20511;-88
2024/04/22 19:28:00;;;;;;;4.77;3.03;;;;;;;;;;6344854;22;20505;-88
2024/04/22 19:31:23;;;;;;;5.77;3.27;;;;;;;;;;6350087;22;20513;-89
2024/04/22 19:34:29;;;;;;;3.27;3.03;;;;;;;;;;6321522;22;20669;-88
2024/04/22 19:48:13;;;;;;;4.23;3.60;;;;;;;;;;6262228;22;20489;-88
2024/04/22 20:01:17;;;;;;;3.07;2.77;;;;;;;;;;6341869;22;20559;-88
2024/04/22 20:04:37;;;;;;;3.80;3.17;;;;;;;;;;6298536;22;20833;-88
2024/04/22 20:08:00;;;;;;;3.53;3.23;;;;;;;;;;6383328;22;20526;-89
2024/04/22 20:28:27;;;;;;;5.30;4.03;;;;;;;;;;6345854;22;20457;-88
2024/04/22 20:31:54;;;;;;;;;;;;;;;;;;;;;
2024/04/22 20:49:30;;;;;;;4.53;3.90;;;;;;;;;;5933933;24;20621;-87
2024/04/22 20:55:37;;;;;;;4.13;3.53;;;;;;;;;;6133938;23;20554;-90
2024/04/22 20:58:29;;;;;;;5.30;4.80;;;;;;;;;;6057050;23;20487;-88
2024/04/22 21:05:02;;;;;;;5.93;5.20;;;;;;;;;;6337531;22;20509;-87
2024/04/22 21:08:35;;;;;;;;;;;;;;;;;;;;;
2024/04/22 21:11:22;;;;;;;5.20;4.80;;;;;;;;;;6488175;22;20526;-87
2024/04/22 21:14:01;;;;;;;5.23;4.73;;;;;;;;;;6484003;22;20455;-87
2024/04/22 21:16:52;;;;;;;5.30;4.80;;;;;;;;;;6488019;22;20874;-88
2024/04/22 21:20:19;;;;;;;5.17;4.67;;;;;;;;;;6483312;22;20455;-88
2024/04/22 21:31:28;;;;;;;7.07;4.93;;;;;;;;;;6594993;21;20543;-87
2024/04/22 21:34:24;;;;;;;5.83;5.23;;;;;;;;;;6560921;21;20503;-87
2024/04/22 21:37:15;;;;;;;4.90;4.20;;;;;;;;;;6539801;21;20453;-88
2024/04/22 21:42:39;;;;;;;5.83;4.33;;;;;;;;;;6583766;21;20535;-87
2024/04/22 21:45:17;;;;;;;6.27;5.00;;;;;;;;;;6596349;21;20480;-88
2024/04/22 21:48:23;;;;;;;5.30;4.80;;;;;;;;;;6547067;21;20525;-87
2024/04/22 21:54:59;;;;;;;4.13;3.73;;;;;;;;;;6596119;21;20495;-87
2024/04/22 21:57:49;;;;;;;5.47;4.40;;;;;;;;;;6548094;21;20464;-88
2024/04/22 22:00:46;;;;;;;5.33;4.60;;;;;;;;;;6591336;21;20460;-87
2024/04/22 22:03:49;;;;;;;3.83;3.53;;;;;;;;;;6549876;21;20471;-85
2024/04/22 22:07:03;;;;;;;4.90;3.90;;;;;;;;;;6549000;21;20551;-87
2024/04/22 22:10:01;;;;;;;6.90;5.67;;;;;;;;;;6555224;21;20456;-88
2024/04/22 22:13:34;;;;;;;6.37;4.73;;;;;;;;;;6557633;21;20542;-86
2024/04/22 22:20:17;;;;;;;5.10;4.10;;;;;;;;;;6655300;21;20516;-88
2024/04/22 23:01:32;;;;;;;;;;;;;;;;;;;;;
2024/04/22 23:04:32;;;;;;;5.03;4.40;;;;;;;;;;6382648;21;20580;-88
2024/04/22 23:07:24;;;;;;;5.80;4.73;;;;;;;;;;6540848;21;20497;-90
2024/04/22 23:16:48;;;;;;;5.57;4.70;;;;;;;;;;6577213;21;20507;-88
2024/04/22 23:23:01;;;;;;;6.60;4.63;;;;;;;;;;6586668;21;20452;-88
2024/04/22 23:25:42;;;;;;;5.30;4.13;;;;;;;;;;6505361;21;20571;-87
2024/04/22 23:28:41;;;;;;;6.90;4.90;;;;;;;;;;6538819;21;20456;-88
2024/04/22 23:53:02;;;;;;;4.77;4.33;;;;;;;;;;6236501;23;20504;-89
